createdAt,value
2023-05-24T00:01:10.555Z,92.90
2023-05-24T00:04:16.808Z,92.90
2023-05-24T00:06:47.038Z,92.90
2023-05-24T00:09:14.197Z,92.90
2023-05-24T04:32:52.923Z,93.40
2023-05-24T04:35:20.500Z,93.40
2023-05-24T04:37:50.240Z,93.30
2023-05-24T04:44:26.393Z,93.40
2023-05-24T05:20:57.434Z,93.50
2023-05-24T05:23:24.419Z,93.50
2023-05-24T05:25:51.570Z,93.50
2023-05-24T05:28:18.686Z,93.50
2023-05-24T05:38:15.658Z,93.60
2023-05-24T05:40:43.089Z,93.60
2023-05-24T05:58:46.317Z,93.70
2023-05-24T06:01:37.519Z,93.60
2023-05-24T07:56:44.781Z,93.20
2023-05-24T07:59:11.707Z,93.10
2023-05-24T08:01:38.937Z,93.00
2023-05-24T08:04:42.320Z,93.00
2023-05-24T08:07:52.562Z,93.00
2023-05-24T08:11:10.376Z,93.00
2023-05-24T08:13:38.761Z,92.90
2023-05-24T08:16:05.905Z,92.90
2023-05-24T08:18:33.367Z,92.90
2023-05-24T08:21:00.308Z,92.90
2023-05-24T08:23:30.038Z,92.80
2023-05-24T09:36:03.958Z,93.20
2023-05-24T09:38:50.262Z,93.20
2023-05-24T09:41:23.452Z,93.20
2023-05-24T09:43:57.783Z,93.20
2023-05-24T09:46:27.301Z,93.20
2023-05-24T09:49:13.394Z,93.10
2023-05-24T10:33:05.544Z,93.30
2023-05-24T10:35:41.600Z,93.30
2023-05-24T10:38:24.301Z,93.30
2023-05-24T10:41:20.026Z,93.30
2023-05-24T10:44:07.842Z,93.30
2023-05-24T10:46:46.496Z,93.30
2023-05-24T10:49:19.359Z,93.30
2023-05-24T10:51:46.457Z,93.30
2023-05-24T10:54:17.692Z,93.20
2023-05-24T10:57:11.272Z,93.30
2023-05-24T10:59:40.701Z,93.20
2023-05-24T11:02:22.512Z,93.30
2023-05-24T11:05:34.303Z,93.30
2023-05-24T11:08:15.468Z,93.30
2023-05-24T11:11:14.992Z,93.30
2023-05-24T11:13:57.994Z,93.30
2023-05-24T11:16:40.823Z,93.30
2023-05-24T11:19:55.727Z,93.30
2023-05-24T12:22:29.316Z,93.20
2023-05-24T12:25:26.222Z,93.20
2023-05-24T12:36:21.532Z,93.10
2023-05-24T12:39:40.218Z,93.10
2023-05-24T12:45:30.279Z,93.10
2023-05-24T12:48:03.103Z,93.10
2023-05-24T12:50:30.696Z,93.10
2023-05-24T12:52:57.864Z,93.10
2023-05-24T12:55:26.442Z,93.00
2023-05-24T12:57:54.637Z,93.10
2023-05-24T13:00:22.992Z,93.00
2023-05-24T13:02:53.054Z,93.10
2023-05-24T13:05:20.323Z,93.10
2023-05-24T13:07:47.279Z,93.00
2023-05-24T13:10:14.295Z,93.00
2023-05-24T13:12:42.008Z,93.00
2023-05-24T13:15:09.789Z,93.00
2023-05-24T13:17:36.748Z,93.00
2023-05-24T13:26:39.293Z,92.90
2023-05-24T13:32:44.647Z,93.00
2023-05-24T13:35:11.726Z,93.00
2023-05-24T13:37:38.962Z,93.00
2023-05-24T13:40:06.519Z,93.10
2023-05-24T13:42:33.901Z,93.00
2023-05-24T13:45:01.148Z,93.00
2023-05-24T13:47:39.286Z,93.00
2023-05-24T13:50:07.869Z,93.10
2023-05-24T13:57:15.352Z,93.10
2023-05-24T13:59:27.402Z,93.10
2023-05-24T14:01:54.732Z,93.10
2023-05-24T14:04:21.803Z,93.00
2023-05-24T14:06:49.211Z,93.10
2023-05-24T14:09:16.197Z,93.10
2023-05-24T14:24:38.303Z,92.90
2023-05-24T14:27:07.664Z,92.90
2023-05-24T14:29:55.791Z,92.90
2023-05-24T14:36:31.636Z,92.90
2023-05-24T14:42:58.209Z,92.90
2023-05-24T14:45:25.962Z,92.90
2023-05-24T14:47:52.907Z,92.90
2023-05-24T14:50:20.054Z,92.90
2023-05-24T14:52:47.189Z,92.90
2023-05-24T14:55:14.794Z,92.90
2023-05-24T14:57:42.042Z,92.90
2023-05-24T15:00:10.739Z,92.90
2023-05-24T15:12:02.886Z,92.90
2023-05-24T15:25:37.347Z,92.80
2023-05-24T15:28:30.202Z,92.80
2023-05-24T15:30:57.514Z,92.80
2023-05-24T15:33:40.869Z,92.70
2023-05-24T15:36:17.910Z,92.70
2023-05-24T15:42:06.400Z,92.70
2023-05-24T15:57:39.840Z,92.70
2023-05-24T16:00:27.141Z,92.60
2023-05-24T16:03:04.121Z,92.70
2023-05-24T16:05:31.337Z,92.70
2023-05-24T16:15:30.141Z,92.70
2023-05-24T16:17:57.258Z,92.70
2023-05-24T17:21:27.772Z,92.60
2023-05-24T17:27:19.944Z,92.70
2023-05-24T17:29:49.305Z,92.70
2023-05-24T17:32:16.334Z,92.60
2023-05-24T22:15:34.392Z,93.20
2023-05-24T22:18:01.690Z,93.20
2023-05-24T22:20:30.637Z,93.20
2023-05-24T22:23:10.093Z,93.20
2023-05-24T22:25:43.135Z,93.20
2023-05-24T22:28:10.487Z,93.20
2023-05-24T22:30:44.819Z,93.20
2023-05-24T22:33:13.848Z,93.20
2023-05-24T22:35:41.115Z,93.20
2023-05-24T22:38:08.281Z,93.20
2023-05-24T22:40:37.140Z,93.20
2023-05-24T22:43:04.309Z,93.20
2023-05-24T22:45:31.309Z,93.20
2023-05-24T22:47:59.245Z,93.20
2023-05-24T22:50:27.084Z,93.20
2023-05-24T22:52:56.994Z,93.20
2023-05-24T22:55:24.098Z,93.20
2023-05-24T22:57:51.015Z,93.20
2023-05-24T23:00:18.912Z,93.30
2023-05-24T23:02:46.918Z,93.30
2023-05-24T23:05:14.000Z,93.30
2023-05-24T23:07:41.146Z,93.30
2023-05-24T23:12:52.437Z,93.30
2023-05-24T23:15:19.906Z,93.30
2023-05-24T23:17:47.215Z,93.30
2023-05-24T23:20:14.605Z,93.30
2023-05-24T23:22:41.644Z,93.30
2023-05-24T23:25:08.975Z,93.30
2023-05-24T23:27:36.040Z,93.30
2023-05-24T23:30:11.563Z,93.30
2023-05-24T23:32:39.096Z,93.30
2023-05-24T23:35:06.331Z,93.30
2023-05-24T23:37:33.207Z,93.30
2023-05-24T23:40:02.501Z,93.30
2023-05-24T23:42:29.648Z,93.30
2023-05-24T23:44:56.723Z,93.20
2023-05-24T23:47:23.635Z,93.20
2023-05-24T23:49:50.618Z,93.30
2023-05-24T23:52:17.645Z,93.20
2023-05-24T23:54:44.780Z,93.30
2023-05-24T23:57:13.508Z,93.60
2023-05-24T23:59:40.728Z,93.30
